sensor_id;sensor_type;location;lat;lon;timestamp;P1;durP1;ratioP1;P2;durP2;ratioP2
25091;SDS011;13082;52.374;4.946;2023-06-22T00:00:42;17.38;;;10.40;;
25091;SDS011;13082;52.374;4.946;2023-06-22T00:03:09;15.73;;;10.05;;
25091;SDS011;13082;52.374;4.946;2023-06-22T00:05:35;13.50;;;9.77;;
25091;SDS011;13082;52.374;4.946;2023-06-22T00:08:02;15.52;;;10.63;;
25091;SDS011;13082;52.374;4.946;2023-06-22T00:10:29;14.57;;;10.88;;
25091;SDS011;13082;52.374;4.946;2023-06-22T00:12:55;11.35;;;9.95;;
25091;SDS011;13082;52.374;4.946;2023-06-22T00:15:21;18.02;;;10.70;;
25091;SDS011;13082;52.374;4.946;2023-06-22T00:17:46;14.70;;;10.75;;
25091;SDS011;13082;52.374;4.946;2023-06-22T00:20:12;16.30;;;10.68;;
25091;SDS011;13082;52.374;4.946;2023-06-22T00:22:39;14.98;;;11.07;;
25091;SDS011;13082;52.374;4.946;2023-06-22T00:25:06;15.18;;;10.20;;
25091;SDS011;13082;52.374;4.946;2023-06-22T00:27:32;12.30;;;9.52;;
25091;SDS011;13082;52.374;4.946;2023-06-22T00:29:58;14.40;;;10.30;;
25091;SDS011;13082;52.374;4.946;2023-06-22T00:32:23;15.63;;;10.52;;
25091;SDS011;13082;52.374;4.946;2023-06-22T00:34:49;14.18;;;11.13;;
25091;SDS011;13082;52.374;4.946;2023-06-22T00:37:15;15.30;;;10.90;;
25091;SDS011;13082;52.374;4.946;2023-06-22T00:39:42;17.67;;;11.30;;
25091;SDS011;13082;52.374;4.946;2023-06-22T00:42:08;19.00;;;11.70;;
25091;SDS011;13082;52.374;4.946;2023-06-22T00:44:34;20.77;;;12.15;;
25091;SDS011;13082;52.374;4.946;2023-06-22T00:47:01;18.05;;;11.90;;
25091;SDS011;13082;52.374;4.946;2023-06-22T00:49:28;16.80;;;12.05;;
25091;SDS011;13082;52.374;4.946;2023-06-22T00:51:54;18.27;;;11.90;;
25091;SDS011;13082;52.374;4.946;2023-06-22T00:54:20;20.92;;;12.18;;
25091;SDS011;13082;52.374;4.946;2023-06-22T00:56:51;14.13;;;11.07;;
25091;SDS011;13082;52.374;4.946;2023-06-22T00:59:19;18.30;;;12.60;;
25091;SDS011;13082;52.374;4.946;2023-06-22T01:01:46;19.80;;;13.00;;
25091;SDS011;13082;52.374;4.946;2023-06-22T01:04:11;18.00;;;12.00;;
25091;SDS011;13082;52.374;4.946;2023-06-22T01:07:00;19.73;;;13.70;;
25091;SDS011;13082;52.374;4.946;2023-06-22T01:09:31;17.13;;;11.95;;
25091;SDS011;13082;52.374;4.946;2023-06-22T01:12:01;19.83;;;12.85;;
25091;SDS011;13082;52.374;4.946;2023-06-22T01:17:08;21.15;;;14.27;;
25091;SDS011;13082;52.374;4.946;2023-06-22T01:19:44;21.20;;;13.38;;
25091;SDS011;13082;52.374;4.946;2023-06-22T01:22:20;17.90;;;13.20;;
25091;SDS011;13082;52.374;4.946;2023-06-22T01:24:57;22.70;;;14.60;;
25091;SDS011;13082;52.374;4.946;2023-06-22T01:27:55;19.95;;;13.98;;
25091;SDS011;13082;52.374;4.946;2023-06-22T01:30:42;21.08;;;13.93;;
25091;SDS011;13082;52.374;4.946;2023-06-22T01:33:10;22.05;;;14.40;;
25091;SDS011;13082;52.374;4.946;2023-06-22T01:35:37;19.70;;;14.38;;
25091;SDS011;13082;52.374;4.946;2023-06-22T01:38:04;20.70;;;13.88;;
25091;SDS011;13082;52.374;4.946;2023-06-22T01:40:30;19.23;;;13.65;;
25091;SDS011;13082;52.374;4.946;2023-06-22T01:42:59;19.05;;;13.30;;
25091;SDS011;13082;52.374;4.946;2023-06-22T01:45:28;18.85;;;12.35;;
25091;SDS011;13082;52.374;4.946;2023-06-22T01:47:55;19.17;;;12.85;;
25091;SDS011;13082;52.374;4.946;2023-06-22T01:50:21;16.40;;;11.52;;
25091;SDS011;13082;52.374;4.946;2023-06-22T01:52:47;23.55;;;12.85;;
25091;SDS011;13082;52.374;4.946;2023-06-22T01:55:12;18.10;;;11.95;;
25091;SDS011;13082;52.374;4.946;2023-06-22T01:57:38;17.65;;;11.90;;
25091;SDS011;13082;52.374;4.946;2023-06-22T02:00:06;16.92;;;10.95;;
25091;SDS011;13082;52.374;4.946;2023-06-22T02:02:39;16.52;;;11.68;;
25091;SDS011;13082;52.374;4.946;2023-06-22T02:05:18;16.33;;;11.32;;
25091;SDS011;13082;52.374;4.946;2023-06-22T02:08:19;16.13;;;11.45;;
25091;SDS011;13082;52.374;4.946;2023-06-22T02:10:41;19.27;;;10.77;;
25091;SDS011;13082;52.374;4.946;2023-06-22T02:13:08;15.95;;;10.45;;
25091;SDS011;13082;52.374;4.946;2023-06-22T02:15:35;14.43;;;10.32;;
25091;SDS011;13082;52.374;4.946;2023-06-22T02:18:01;15.40;;;10.88;;
25091;SDS011;13082;52.374;4.946;2023-06-22T02:20:27;20.15;;;12.23;;
25091;SDS011;13082;52.374;4.946;2023-06-22T02:22:53;12.15;;;9.95;;
25091;SDS011;13082;52.374;4.946;2023-06-22T02:25:18;15.43;;;11.55;;
25091;SDS011;13082;52.374;4.946;2023-06-22T02:27:44;17.52;;;11.70;;
25091;SDS011;13082;52.374;4.946;2023-06-22T02:30:10;18.05;;;12.75;;
25091;SDS011;13082;52.374;4.946;2023-06-22T02:32:37;16.92;;;11.73;;
25091;SDS011;13082;52.374;4.946;2023-06-22T02:35:07;18.13;;;12.85;;
25091;SDS011;13082;52.374;4.946;2023-06-22T02:37:36;15.43;;;11.05;;
25091;SDS011;13082;52.374;4.946;2023-06-22T02:40:07;20.38;;;13.85;;
25091;SDS011;13082;52.374;4.946;2023-06-22T02:42:34;16.92;;;12.13;;
25091;SDS011;13082;52.374;4.946;2023-06-22T02:45:00;19.63;;;12.43;;
25091;SDS011;13082;52.374;4.946;2023-06-22T02:47:26;16.42;;;11.48;;
25091;SDS011;13082;52.374;4.946;2023-06-22T02:49:51;16.70;;;11.15;;
25091;SDS011;13082;52.374;4.946;2023-06-22T02:52:17;18.80;;;12.07;;
25091;SDS011;13082;52.374;4.946;2023-06-22T02:54:43;16.60;;;10.98;;
25091;SDS011;13082;52.374;4.946;2023-06-22T02:57:11;14.77;;;11.18;;
25091;SDS011;13082;52.374;4.946;2023-06-22T02:59:39;19.15;;;13.00;;
25091;SDS011;13082;52.374;4.946;2023-06-22T03:02:06;16.30;;;12.93;;
25091;SDS011;13082;52.374;4.946;2023-06-22T03:04:33;18.13;;;12.18;;
25091;SDS011;13082;52.374;4.946;2023-06-22T03:06:59;18.83;;;13.48;;
25091;SDS011;13082;52.374;4.946;2023-06-22T03:09:26;16.52;;;12.52;;
25091;SDS011;13082;52.374;4.946;2023-06-22T03:11:53;23.00;;;15.30;;
25091;SDS011;13082;52.374;4.946;2023-06-22T03:14:19;20.30;;;14.70;;
25091;SDS011;13082;52.374;4.946;2023-06-22T03:16:45;24.02;;;14.82;;
25091;SDS011;13082;52.374;4.946;2023-06-22T03:19:10;17.30;;;13.27;;
25091;SDS011;13082;52.374;4.946;2023-06-22T03:21:36;20.27;;;14.63;;
25091;SDS011;13082;52.374;4.946;2023-06-22T03:24:03;18.05;;;13.43;;
25091;SDS011;13082;52.374;4.946;2023-06-22T03:26:30;22.83;;;14.10;;
25091;SDS011;13082;52.374;4.946;2023-06-22T03:28:56;21.77;;;14.30;;
25091;SDS011;13082;52.374;4.946;2023-06-22T03:31:21;18.50;;;13.70;;
25091;SDS011;13082;52.374;4.946;2023-06-22T03:33:48;18.25;;;13.35;;
25091;SDS011;13082;52.374;4.946;2023-06-22T03:36:14;19.85;;;13.48;;
25091;SDS011;13082;52.374;4.946;2023-06-22T03:38:47;16.50;;;11.88;;
25091;SDS011;13082;52.374;4.946;2023-06-22T03:41:14;18.08;;;14.05;;
25091;SDS011;13082;52.374;4.946;2023-06-22T03:43:40;19.75;;;13.48;;
25091;SDS011;13082;52.374;4.946;2023-06-22T03:46:05;19.02;;;12.93;;
25091;SDS011;13082;52.374;4.946;2023-06-22T03:48:31;21.30;;;14.02;;
25091;SDS011;13082;52.374;4.946;2023-06-22T03:50:58;18.77;;;13.18;;
25091;SDS011;13082;52.374;4.946;2023-06-22T03:53:25;20.10;;;13.50;;
25091;SDS011;13082;52.374;4.946;2023-06-22T03:55:51;21.98;;;14.10;;
25091;SDS011;13082;52.374;4.946;2023-06-22T03:58:17;21.95;;;14.05;;
25091;SDS011;13082;52.374;4.946;2023-06-22T04:00:44;19.70;;;13.30;;
25091;SDS011;13082;52.374;4.946;2023-06-22T04:03:18;21.95;;;12.95;;
25091;SDS011;13082;52.374;4.946;2023-06-22T04:05:44;17.73;;;12.05;;
25091;SDS011;13082;52.374;4.946;2023-06-22T04:08:12;20.40;;;13.73;;
25091;SDS011;13082;52.374;4.946;2023-06-22T04:10:38;20.73;;;13.82;;
25091;SDS011;13082;52.374;4.946;2023-06-22T04:13:04;22.23;;;14.02;;
25091;SDS011;13082;52.374;4.946;2023-06-22T04:15:30;23.35;;;13.15;;
25091;SDS011;13082;52.374;4.946;2023-06-22T04:17:55;21.00;;;13.65;;
25091;SDS011;13082;52.374;4.946;2023-06-22T04:20:22;15.57;;;11.40;;
25091;SDS011;13082;52.374;4.946;2023-06-22T04:22:50;19.02;;;12.43;;
25091;SDS011;13082;52.374;4.946;2023-06-22T04:25:17;19.02;;;12.98;;
25091;SDS011;13082;52.374;4.946;2023-06-22T04:27:42;20.20;;;13.10;;
25091;SDS011;13082;52.374;4.946;2023-06-22T04:30:08;17.95;;;12.68;;
25091;SDS011;13082;52.374;4.946;2023-06-22T04:32:35;18.30;;;12.38;;
25091;SDS011;13082;52.374;4.946;2023-06-22T04:35:04;18.63;;;11.88;;
25091;SDS011;13082;52.374;4.946;2023-06-22T04:37:31;16.30;;;11.35;;
25091;SDS011;13082;52.374;4.946;2023-06-22T04:39:57;16.90;;;10.90;;
25091;SDS011;13082;52.374;4.946;2023-06-22T04:42:23;17.08;;;11.77;;
25091;SDS011;13082;52.374;4.946;2023-06-22T04:44:50;15.60;;;12.23;;
25091;SDS011;13082;52.374;4.946;2023-06-22T04:47:16;18.17;;;12.27;;
25091;SDS011;13082;52.374;4.946;2023-06-22T04:49:42;16.67;;;12.13;;
25091;SDS011;13082;52.374;4.946;2023-06-22T04:52:09;14.68;;;10.90;;
25091;SDS011;13082;52.374;4.946;2023-06-22T04:54:36;19.27;;;12.00;;
25091;SDS011;13082;52.374;4.946;2023-06-22T04:57:04;17.42;;;11.95;;
25091;SDS011;13082;52.374;4.946;2023-06-22T04:59:34;15.93;;;10.73;;
25091;SDS011;13082;52.374;4.946;2023-06-22T05:02:01;18.48;;;12.55;;
25091;SDS011;13082;52.374;4.946;2023-06-22T05:04:28;18.65;;;12.13;;
25091;SDS011;13082;52.374;4.946;2023-06-22T05:06:58;14.05;;;12.05;;
25091;SDS011;13082;52.374;4.946;2023-06-22T05:09:25;17.95;;;13.10;;
25091;SDS011;13082;52.374;4.946;2023-06-22T05:11:51;19.65;;;12.07;;
25091;SDS011;13082;52.374;4.946;2023-06-22T05:14:17;19.58;;;13.23;;
25091;SDS011;13082;52.374;4.946;2023-06-22T05:16:43;18.40;;;12.20;;
25091;SDS011;13082;52.374;4.946;2023-06-22T05:19:11;18.23;;;13.02;;
25091;SDS011;13082;52.374;4.946;2023-06-22T05:21:38;18.38;;;12.48;;
25091;SDS011;13082;52.374;4.946;2023-06-22T05:24:04;19.75;;;13.20;;
25091;SDS011;13082;52.374;4.946;2023-06-22T05:26:30;19.80;;;13.80;;
25091;SDS011;13082;52.374;4.946;2023-06-22T05:28:59;21.25;;;13.98;;
25091;SDS011;13082;52.374;4.946;2023-06-22T05:31:27;20.70;;;15.23;;
25091;SDS011;13082;52.374;4.946;2023-06-22T05:33:54;25.85;;;16.30;;
25091;SDS011;13082;52.374;4.946;2023-06-22T05:36:21;22.98;;;17.10;;
25091;SDS011;13082;52.374;4.946;2023-06-22T05:38:50;23.55;;;15.75;;
25091;SDS011;13082;52.374;4.946;2023-06-22T05:41:16;26.23;;;17.83;;
25091;SDS011;13082;52.374;4.946;2023-06-22T05:43:42;29.20;;;19.45;;
25091;SDS011;13082;52.374;4.946;2023-06-22T05:46:07;29.08;;;18.83;;
25091;SDS011;13082;52.374;4.946;2023-06-22T05:48:33;29.92;;;20.15;;
25091;SDS011;13082;52.374;4.946;2023-06-22T05:50:59;27.10;;;18.73;;
25091;SDS011;13082;52.374;4.946;2023-06-22T05:53:25;28.15;;;19.20;;
25091;SDS011;13082;52.374;4.946;2023-06-22T05:55:50;31.48;;;20.13;;
25091;SDS011;13082;52.374;4.946;2023-06-22T05:58:16;26.38;;;17.80;;
25091;SDS011;13082;52.374;4.946;2023-06-22T06:00:42;28.23;;;19.45;;
25091;SDS011;13082;52.374;4.946;2023-06-22T06:03:08;29.92;;;20.55;;
25091;SDS011;13082;52.374;4.946;2023-06-22T06:05:35;31.92;;;19.88;;
25091;SDS011;13082;52.374;4.946;2023-06-22T06:08:01;30.00;;;20.55;;
25091;SDS011;13082;52.374;4.946;2023-06-22T06:10:30;28.33;;;19.38;;
25091;SDS011;13082;52.374;4.946;2023-06-22T06:12:56;28.85;;;21.02;;
25091;SDS011;13082;52.374;4.946;2023-06-22T06:15:21;31.35;;;21.58;;
25091;SDS011;13082;52.374;4.946;2023-06-22T06:17:48;30.88;;;21.45;;
25091;SDS011;13082;52.374;4.946;2023-06-22T06:20:15;35.28;;;22.38;;
25091;SDS011;13082;52.374;4.946;2023-06-22T06:22:42;28.25;;;20.45;;
25091;SDS011;13082;52.374;4.946;2023-06-22T06:25:08;32.40;;;20.85;;
25091;SDS011;13082;52.374;4.946;2023-06-22T06:27:34;31.58;;;21.33;;
25091;SDS011;13082;52.374;4.946;2023-06-22T06:30:00;35.33;;;22.58;;
25091;SDS011;13082;52.374;4.946;2023-06-22T06:32:25;31.00;;;20.27;;
25091;SDS011;13082;52.374;4.946;2023-06-22T06:34:51;28.23;;;21.15;;
25091;SDS011;13082;52.374;4.946;2023-06-22T06:37:17;32.55;;;21.77;;
25091;SDS011;13082;52.374;4.946;2023-06-22T06:39:43;33.10;;;22.15;;
25091;SDS011;13082;52.374;4.946;2023-06-22T06:42:09;33.00;;;22.77;;
25091;SDS011;13082;52.374;4.946;2023-06-22T06:44:36;32.72;;;23.73;;
25091;SDS011;13082;52.374;4.946;2023-06-22T06:47:02;37.90;;;24.20;;
25091;SDS011;13082;52.374;4.946;2023-06-22T06:49:29;35.65;;;25.02;;
25091;SDS011;13082;52.374;4.946;2023-06-22T06:51:54;37.15;;;24.95;;
25091;SDS011;13082;52.374;4.946;2023-06-22T06:54:21;32.08;;;23.23;;
25091;SDS011;13082;52.374;4.946;2023-06-22T06:56:46;39.47;;;25.27;;
25091;SDS011;13082;52.374;4.946;2023-06-22T06:59:13;34.95;;;23.63;;
25091;SDS011;13082;52.374;4.946;2023-06-22T07:01:40;36.65;;;25.17;;
25091;SDS011;13082;52.374;4.946;2023-06-22T07:04:06;33.42;;;23.67;;
25091;SDS011;13082;52.374;4.946;2023-06-22T07:06:32;37.92;;;25.08;;
25091;SDS011;13082;52.374;4.946;2023-06-22T07:08:58;37.22;;;24.20;;
25091;SDS011;13082;52.374;4.946;2023-06-22T07:11:24;33.38;;;24.05;;
25091;SDS011;13082;52.374;4.946;2023-06-22T07:13:50;31.75;;;23.08;;
25091;SDS011;13082;52.374;4.946;2023-06-22T07:16:16;27.25;;;21.23;;
25091;SDS011;13082;52.374;4.946;2023-06-22T07:18:42;29.00;;;20.65;;
25091;SDS011;13082;52.374;4.946;2023-06-22T07:21:07;27.83;;;19.50;;
25091;SDS011;13082;52.374;4.946;2023-06-22T07:23:34;27.85;;;19.67;;
25091;SDS011;13082;52.374;4.946;2023-06-22T07:26:00;27.20;;;19.83;;
25091;SDS011;13082;52.374;4.946;2023-06-22T07:28:31;28.38;;;19.85;;
25091;SDS011;13082;52.374;4.946;2023-06-22T07:31:02;24.67;;;18.40;;
25091;SDS011;13082;52.374;4.946;2023-06-22T07:33:28;23.27;;;18.50;;
25091;SDS011;13082;52.374;4.946;2023-06-22T07:35:53;29.88;;;17.63;;
25091;SDS011;13082;52.374;4.946;2023-06-22T07:38:19;22.75;;;15.80;;
25091;SDS011;13082;52.374;4.946;2023-06-22T07:40:45;20.45;;;16.40;;
25091;SDS011;13082;52.374;4.946;2023-06-22T07:43:10;24.42;;;16.23;;
25091;SDS011;13082;52.374;4.946;2023-06-22T07:45:37;21.00;;;15.32;;
25091;SDS011;13082;52.374;4.946;2023-06-22T07:48:05;23.67;;;16.83;;
25091;SDS011;13082;52.374;4.946;2023-06-22T07:50:30;25.15;;;17.90;;
25091;SDS011;13082;52.374;4.946;2023-06-22T07:53:04;21.30;;;17.55;;
25091;SDS011;13082;52.374;4.946;2023-06-22T07:55:29;22.10;;;15.95;;
25091;SDS011;13082;52.374;4.946;2023-06-22T07:57:55;19.83;;;16.42;;
25091;SDS011;13082;52.374;4.946;2023-06-22T08:00:21;27.38;;;16.20;;
25091;SDS011;13082;52.374;4.946;2023-06-22T08:02:47;21.98;;;15.60;;
25091;SDS011;13082;52.374;4.946;2023-06-22T08:05:14;20.65;;;16.83;;
25091;SDS011;13082;52.374;4.946;2023-06-22T08:07:40;19.48;;;15.70;;
25091;SDS011;13082;52.374;4.946;2023-06-22T08:10:09;20.23;;;15.20;;
25091;SDS011;13082;52.374;4.946;2023-06-22T08:12:36;19.50;;;13.55;;
25091;SDS011;13082;52.374;4.946;2023-06-22T08:15:02;18.98;;;13.93;;
25091;SDS011;13082;52.374;4.946;2023-06-22T08:17:28;18.40;;;13.70;;
25091;SDS011;13082;52.374;4.946;2023-06-22T08:19:57;16.25;;;12.75;;
25091;SDS011;13082;52.374;4.946;2023-06-22T08:22:22;17.85;;;14.38;;
25091;SDS011;13082;52.374;4.946;2023-06-22T08:24:48;19.40;;;13.90;;
25091;SDS011;13082;52.374;4.946;2023-06-22T08:27:14;15.65;;;12.82;;
25091;SDS011;13082;52.374;4.946;2023-06-22T08:29:46;16.95;;;13.93;;
25091;SDS011;13082;52.374;4.946;2023-06-22T08:32:12;18.40;;;13.90;;
25091;SDS011;13082;52.374;4.946;2023-06-22T08:34:39;17.85;;;14.57;;
25091;SDS011;13082;52.374;4.946;2023-06-22T08:37:07;19.08;;;13.43;;
25091;SDS011;13082;52.374;4.946;2023-06-22T08:39:36;16.60;;;13.90;;
25091;SDS011;13082;52.374;4.946;2023-06-22T08:42:03;19.08;;;14.10;;
25091;SDS011;13082;52.374;4.946;2023-06-22T08:44:29;18.30;;;13.80;;
25091;SDS011;13082;52.374;4.946;2023-06-22T08:46:54;20.88;;;15.82;;
25091;SDS011;13082;52.374;4.946;2023-06-22T08:49:20;17.98;;;13.50;;
25091;SDS011;13082;52.374;4.946;2023-06-22T08:51:46;15.80;;;13.07;;
25091;SDS011;13082;52.374;4.946;2023-06-22T08:54:14;20.92;;;17.40;;
25091;SDS011;13082;52.374;4.946;2023-06-22T08:56:40;22.02;;;14.40;;
25091;SDS011;13082;52.374;4.946;2023-06-22T08:59:09;19.65;;;14.65;;
25091;SDS011;13082;52.374;4.946;2023-06-22T09:01:34;18.13;;;13.85;;
25091;SDS011;13082;52.374;4.946;2023-06-22T09:04:00;20.00;;;15.40;;
25091;SDS011;13082;52.374;4.946;2023-06-22T09:06:26;20.35;;;16.38;;
25091;SDS011;13082;52.374;4.946;2023-06-22T09:08:54;25.25;;;15.40;;
25091;SDS011;13082;52.374;4.946;2023-06-22T09:11:20;18.63;;;14.13;;
25091;SDS011;13082;52.374;4.946;2023-06-22T09:13:46;19.63;;;15.38;;
25091;SDS011;13082;52.374;4.946;2023-06-22T09:16:12;25.88;;;17.95;;
25091;SDS011;13082;52.374;4.946;2023-06-22T09:18:38;22.40;;;16.65;;
25091;SDS011;13082;52.374;4.946;2023-06-22T09:21:04;22.20;;;16.85;;
25091;SDS011;13082;52.374;4.946;2023-06-22T09:23:29;22.05;;;15.98;;
25091;SDS011;13082;52.374;4.946;2023-06-22T09:25:55;22.55;;;17.48;;
25091;SDS011;13082;52.374;4.946;2023-06-22T09:28:21;21.13;;;15.32;;
25091;SDS011;13082;52.374;4.946;2023-06-22T09:30:46;27.80;;;18.73;;
25091;SDS011;13082;52.374;4.946;2023-06-22T09:33:12;26.13;;;16.95;;
25091;SDS011;13082;52.374;4.946;2023-06-22T09:35:44;24.35;;;17.77;;
25091;SDS011;13082;52.374;4.946;2023-06-22T09:38:10;26.73;;;18.27;;
25091;SDS011;13082;52.374;4.946;2023-06-22T09:40:35;21.38;;;17.00;;
25091;SDS011;13082;52.374;4.946;2023-06-22T09:43:05;20.48;;;16.23;;
25091;SDS011;13082;52.374;4.946;2023-06-22T09:45:30;21.77;;;16.10;;
25091;SDS011;13082;52.374;4.946;2023-06-22T09:47:56;21.52;;;16.38;;
25091;SDS011;13082;52.374;4.946;2023-06-22T09:50:22;24.42;;;17.35;;
25091;SDS011;13082;52.374;4.946;2023-06-22T09:52:47;23.67;;;16.17;;
25091;SDS011;13082;52.374;4.946;2023-06-22T09:55:19;21.52;;;16.55;;
25091;SDS011;13082;52.374;4.946;2023-06-22T09:57:48;21.08;;;15.40;;
25091;SDS011;13082;52.374;4.946;2023-06-22T10:00:14;17.98;;;15.15;;
25091;SDS011;13082;52.374;4.946;2023-06-22T10:02:41;18.02;;;14.95;;
25091;SDS011;13082;52.374;4.946;2023-06-22T10:05:08;18.42;;;14.43;;
25091;SDS011;13082;52.374;4.946;2023-06-22T10:07:33;16.08;;;13.65;;
25091;SDS011;13082;52.374;4.946;2023-06-22T10:09:59;19.02;;;14.18;;
25091;SDS011;13082;52.374;4.946;2023-06-22T10:12:27;18.08;;;13.88;;
25091;SDS011;13082;52.374;4.946;2023-06-22T10:14:53;17.63;;;13.55;;
25091;SDS011;13082;52.374;4.946;2023-06-22T10:17:19;19.20;;;13.38;;
25091;SDS011;13082;52.374;4.946;2023-06-22T10:19:44;19.95;;;14.65;;
25091;SDS011;13082;52.374;4.946;2023-06-22T10:22:10;19.10;;;13.73;;
25091;SDS011;13082;52.374;4.946;2023-06-22T10:24:36;18.42;;;13.75;;
25091;SDS011;13082;52.374;4.946;2023-06-22T10:27:03;18.60;;;13.85;;
25091;SDS011;13082;52.374;4.946;2023-06-22T10:29:29;18.17;;;13.52;;
25091;SDS011;13082;52.374;4.946;2023-06-22T10:31:54;16.52;;;12.77;;
25091;SDS011;13082;52.374;4.946;2023-06-22T10:34:20;15.23;;;12.90;;
25091;SDS011;13082;52.374;4.946;2023-06-22T10:36:52;22.38;;;14.57;;
25091;SDS011;13082;52.374;4.946;2023-06-22T10:39:18;18.77;;;13.23;;
25091;SDS011;13082;52.374;4.946;2023-06-22T10:41:44;18.88;;;13.73;;
25091;SDS011;13082;52.374;4.946;2023-06-22T10:44:11;17.13;;;14.40;;
25091;SDS011;13082;52.374;4.946;2023-06-22T10:46:37;16.65;;;13.48;;
25091;SDS011;13082;52.374;4.946;2023-06-22T10:49:03;20.02;;;13.75;;
25091;SDS011;13082;52.374;4.946;2023-06-22T10:51:28;17.50;;;13.50;;
25091;SDS011;13082;52.374;4.946;2023-06-22T10:53:56;14.10;;;12.50;;
25091;SDS011;13082;52.374;4.946;2023-06-22T10:56:21;15.20;;;12.45;;
25091;SDS011;13082;52.374;4.946;2023-06-22T10:58:47;14.57;;;12.82;;
25091;SDS011;13082;52.374;4.946;2023-06-22T11:01:12;16.20;;;13.32;;
25091;SDS011;13082;52.374;4.946;2023-06-22T11:03:39;17.52;;;13.48;;
25091;SDS011;13082;52.374;4.946;2023-06-22T11:06:04;16.92;;;13.07;;
25091;SDS011;13082;52.374;4.946;2023-06-22T11:08:30;16.90;;;12.77;;
25091;SDS011;13082;52.374;4.946;2023-06-22T11:10:56;15.13;;;12.50;;
25091;SDS011;13082;52.374;4.946;2023-06-22T11:13:21;14.82;;;12.52;;
25091;SDS011;13082;52.374;4.946;2023-06-22T11:15:47;16.48;;;13.55;;
25091;SDS011;13082;52.374;4.946;2023-06-22T11:18:13;17.75;;;12.27;;
25091;SDS011;13082;52.374;4.946;2023-06-22T11:20:38;18.50;;;14.40;;
25091;SDS011;13082;52.374;4.946;2023-06-22T11:23:05;17.45;;;13.40;;
25091;SDS011;13082;52.374;4.946;2023-06-22T11:25:31;17.30;;;13.82;;
25091;SDS011;13082;52.374;4.946;2023-06-22T11:27:59;18.05;;;13.63;;
25091;SDS011;13082;52.374;4.946;2023-06-22T11:30:27;17.33;;;13.38;;
25091;SDS011;13082;52.374;4.946;2023-06-22T11:32:52;17.27;;;14.60;;
25091;SDS011;13082;52.374;4.946;2023-06-22T11:35:18;16.10;;;13.13;;
25091;SDS011;13082;52.374;4.946;2023-06-22T11:37:44;17.27;;;12.45;;
25091;SDS011;13082;52.374;4.946;2023-06-22T11:40:09;17.52;;;13.07;;
25091;SDS011;13082;52.374;4.946;2023-06-22T11:42:35;16.48;;;13.20;;
25091;SDS011;13082;52.374;4.946;2023-06-22T11:45:01;16.30;;;12.70;;
25091;SDS011;13082;52.374;4.946;2023-06-22T11:47:29;15.10;;;12.50;;
25091;SDS011;13082;52.374;4.946;2023-06-22T11:49:55;18.88;;;11.98;;
25091;SDS011;13082;52.374;4.946;2023-06-22T11:52:21;15.50;;;12.27;;
25091;SDS011;13082;52.374;4.946;2023-06-22T11:54:46;17.80;;;13.48;;
25091;SDS011;13082;52.374;4.946;2023-06-22T11:57:12;16.05;;;12.02;;
25091;SDS011;13082;52.374;4.946;2023-06-22T11:59:37;15.43;;;11.18;;
25091;SDS011;13082;52.374;4.946;2023-06-22T12:02:03;14.65;;;13.02;;
25091;SDS011;13082;52.374;4.946;2023-06-22T12:04:30;15.35;;;11.93;;
25091;SDS011;13082;52.374;4.946;2023-06-22T12:06:56;14.70;;;12.05;;
25091;SDS011;13082;52.374;4.946;2023-06-22T12:09:23;15.30;;;11.63;;
25091;SDS011;13082;52.374;4.946;2023-06-22T12:11:48;15.38;;;10.57;;
25091;SDS011;13082;52.374;4.946;2023-06-22T12:14:14;13.10;;;11.02;;
25091;SDS011;13082;52.374;4.946;2023-06-22T12:16:40;15.00;;;11.05;;
25091;SDS011;13082;52.374;4.946;2023-06-22T12:19:05;13.23;;;11.20;;
25091;SDS011;13082;52.374;4.946;2023-06-22T12:21:34;13.80;;;10.25;;
25091;SDS011;13082;52.374;4.946;2023-06-22T12:23:59;16.15;;;9.73;;
25091;SDS011;13082;52.374;4.946;2023-06-22T12:26:25;12.55;;;10.20;;
25091;SDS011;13082;52.374;4.946;2023-06-22T12:28:51;13.10;;;10.13;;
25091;SDS011;13082;52.374;4.946;2023-06-22T12:31:17;13.07;;;10.10;;
25091;SDS011;13082;52.374;4.946;2023-06-22T12:33:42;12.27;;;9.95;;
25091;SDS011;13082;52.374;4.946;2023-06-22T12:36:08;12.27;;;9.45;;
25091;SDS011;13082;52.374;4.946;2023-06-22T12:38:34;15.80;;;10.38;;
25091;SDS011;13082;52.374;4.946;2023-06-22T12:40:59;11.82;;;9.68;;
25091;SDS011;13082;52.374;4.946;2023-06-22T12:43:25;14.65;;;10.68;;
25091;SDS011;13082;52.374;4.946;2023-06-22T12:45:51;11.43;;;9.52;;
25091;SDS011;13082;52.374;4.946;2023-06-22T12:48:16;13.00;;;9.80;;
25091;SDS011;13082;52.374;4.946;2023-06-22T12:50:42;11.50;;;10.32;;
25091;SDS011;13082;52.374;4.946;2023-06-22T12:53:07;11.07;;;9.95;;
25091;SDS011;13082;52.374;4.946;2023-06-22T12:55:34;11.68;;;9.07;;
25091;SDS011;13082;52.374;4.946;2023-06-22T12:58:00;12.20;;;8.57;;
25091;SDS011;13082;52.374;4.946;2023-06-22T13:00:25;10.38;;;9.30;;
25091;SDS011;13082;52.374;4.946;2023-06-22T13:02:51;12.18;;;9.05;;
25091;SDS011;13082;52.374;4.946;2023-06-22T13:05:17;11.15;;;8.27;;
25091;SDS011;13082;52.374;4.946;2023-06-22T13:07:43;10.60;;;7.63;;
25091;SDS011;13082;52.374;4.946;2023-06-22T13:10:10;10.30;;;8.35;;
25091;SDS011;13082;52.374;4.946;2023-06-22T13:12:36;9.95;;;7.53;;
25091;SDS011;13082;52.374;4.946;2023-06-22T13:15:01;9.57;;;7.78;;
25091;SDS011;13082;52.374;4.946;2023-06-22T13:17:28;9.48;;;8.52;;
25091;SDS011;13082;52.374;4.946;2023-06-22T13:19:54;10.70;;;8.65;;
25091;SDS011;13082;52.374;4.946;2023-06-22T13:24:51;8.70;;;7.75;;
25091;SDS011;13082;52.374;4.946;2023-06-22T13:27:17;12.18;;;7.45;;
25091;SDS011;13082;52.374;4.946;2023-06-22T13:29:42;10.02;;;7.10;;
25091;SDS011;13082;52.374;4.946;2023-06-22T13:32:08;9.75;;;7.38;;
25091;SDS011;13082;52.374;4.946;2023-06-22T13:34:34;8.38;;;6.53;;
25091;SDS011;13082;52.374;4.946;2023-06-22T13:36:59;6.88;;;6.18;;
25091;SDS011;13082;52.374;4.946;2023-06-22T13:39:25;7.63;;;6.82;;
25091;SDS011;13082;52.374;4.946;2023-06-22T13:41:50;7.03;;;6.22;;
25091;SDS011;13082;52.374;4.946;2023-06-22T13:44:16;8.60;;;6.70;;
25091;SDS011;13082;52.374;4.946;2023-06-22T13:46:42;7.57;;;6.13;;
25091;SDS011;13082;52.374;4.946;2023-06-22T13:49:07;7.13;;;5.30;;
25091;SDS011;13082;52.374;4.946;2023-06-22T13:51:33;7.47;;;6.28;;
25091;SDS011;13082;52.374;4.946;2023-06-22T13:53:58;7.57;;;6.07;;
25091;SDS011;13082;52.374;4.946;2023-06-22T13:56:24;6.15;;;5.55;;
25091;SDS011;13082;52.374;4.946;2023-06-22T13:58:50;7.45;;;5.97;;
25091;SDS011;13082;52.374;4.946;2023-06-22T14:01:15;7.05;;;5.47;;
25091;SDS011;13082;52.374;4.946;2023-06-22T14:03:41;6.97;;;5.93;;
25091;SDS011;13082;52.374;4.946;2023-06-22T14:06:06;6.35;;;5.07;;
25091;SDS011;13082;52.374;4.946;2023-06-22T14:08:34;6.50;;;5.65;;
25091;SDS011;13082;52.374;4.946;2023-06-22T14:11:01;8.73;;;5.63;;
25091;SDS011;13082;52.374;4.946;2023-06-22T14:13:26;6.32;;;5.70;;
25091;SDS011;13082;52.374;4.946;2023-06-22T14:15:52;6.50;;;4.75;;
25091;SDS011;13082;52.374;4.946;2023-06-22T14:18:19;8.95;;;5.78;;
25091;SDS011;13082;52.374;4.946;2023-06-22T14:20:47;5.95;;;5.18;;
25091;SDS011;13082;52.374;4.946;2023-06-22T14:23:13;5.72;;;5.22;;
25091;SDS011;13082;52.374;4.946;2023-06-22T14:25:39;9.23;;;6.65;;